createdAt,value
2018-11-03T00:01:09.001Z,93.10
2018-11-03T00:03:37.227Z,93.00
2018-11-03T00:06:05.496Z,93.00
2018-11-03T00:08:33.751Z,93.10
2018-11-03T00:11:01.982Z,93.80
2018-11-03T00:13:30.231Z,94.00
2018-11-03T00:15:58.481Z,94.10
2018-11-03T00:18:26.714Z,94.00
2018-11-03T00:20:54.934Z,94.70
2018-11-03T00:23:23.195Z,95.30
2018-11-03T00:25:51.426Z,95.40
2018-11-03T00:28:19.663Z,94.80
2018-11-03T00:30:47.927Z,95.40
2018-11-03T00:33:16.170Z,94.90
2018-11-03T00:35:44.402Z,95.20
2018-11-03T00:38:12.728Z,95.10
2018-11-03T00:40:41.019Z,95.10
2018-11-03T00:43:09.196Z,94.70
2018-11-03T00:45:37.529Z,94.30
2018-11-03T00:48:06.159Z,94.20
2018-11-03T00:50:34.389Z,94.10
2018-11-03T00:53:02.616Z,94.00
2018-11-03T00:55:30.844Z,94.00
2018-11-03T00:57:59.092Z,93.90
2018-11-03T01:00:27.360Z,93.90
2018-11-03T01:02:55.590Z,93.40
2018-11-03T01:05:23.819Z,93.90
2018-11-03T01:07:52.139Z,93.40
2018-11-03T01:10:20.359Z,94.70
2018-11-03T01:12:48.590Z,94.60
2018-11-03T01:15:17.959Z,94.70
2018-11-03T01:17:46.300Z,94.50
2018-11-03T01:20:16.677Z,94.70
2018-11-03T01:22:45.040Z,94.40
2018-11-03T01:25:13.266Z,93.70
2018-11-03T01:27:41.532Z,94.10
2018-11-03T01:30:13.744Z,94.40
2018-11-03T01:32:42.173Z,94.00
2018-11-03T01:35:10.706Z,94.10
2018-11-03T01:37:39.515Z,95.00
2018-11-03T01:40:08.838Z,95.00
2018-11-03T01:42:37.096Z,94.70
2018-11-03T01:45:06.334Z,94.50
2018-11-03T01:47:34.739Z,94.40
2018-11-03T01:50:03.004Z,94.10
2018-11-03T01:52:31.291Z,94.10
2018-11-03T01:54:59.540Z,94.00
2018-11-03T01:57:27.763Z,93.80
2018-11-03T01:59:56.014Z,93.80
2018-11-03T02:02:24.248Z,93.90
2018-11-03T02:04:52.479Z,94.60
2018-11-03T02:07:20.805Z,94.90
2018-11-03T02:09:49.043Z,95.30
2018-11-03T02:12:17.287Z,94.60
2018-11-03T02:14:45.548Z,95.10
2018-11-03T02:17:13.774Z,95.10
2018-11-03T02:19:42.006Z,94.80
2018-11-03T02:22:10.237Z,95.50
2018-11-03T02:24:38.476Z,96.10
2018-11-03T02:27:06.712Z,95.70
2018-11-03T02:29:35.060Z,95.50
2018-11-03T02:32:03.317Z,95.50
2018-11-03T02:34:31.531Z,95.60
2018-11-03T02:36:59.755Z,95.10
2018-11-03T02:39:27.991Z,95.00
2018-11-03T02:41:56.233Z,95.20
2018-11-03T02:44:27.757Z,95.00
2018-11-03T02:46:56.047Z,95.60
2018-11-03T02:49:24.233Z,95.90
2018-11-03T02:51:52.549Z,95.60
2018-11-03T02:54:20.775Z,95.70
2018-11-03T02:56:49.018Z,95.90
2018-11-03T02:59:17.283Z,95.60
2018-11-03T03:01:45.510Z,95.90
2018-11-03T03:04:13.753Z,95.60
2018-11-03T03:06:42.003Z,96.00
2018-11-03T03:09:10.231Z,95.80
2018-11-03T03:11:38.476Z,96.00
2018-11-03T03:14:06.744Z,96.30
2018-11-03T03:16:34.996Z,96.00
2018-11-03T03:19:03.244Z,95.70
2018-11-03T03:21:31.511Z,95.30
2018-11-03T03:23:59.739Z,95.80
2018-11-03T03:26:27.956Z,95.90
2018-11-03T03:28:56.243Z,96.10
2018-11-03T03:31:24.430Z,95.60
2018-11-03T03:33:52.650Z,96.10
2018-11-03T03:36:20.928Z,95.80
2018-11-03T03:38:49.141Z,96.00
2018-11-03T03:41:17.374Z,96.50
2018-11-03T03:43:45.637Z,96.30
2018-11-03T03:46:13.836Z,96.10
2018-11-03T03:48:42.207Z,96.50
2018-11-03T03:51:10.463Z,96.90
2018-11-03T03:53:38.716Z,96.80
2018-11-03T03:56:06.953Z,96.70
2018-11-03T03:58:35.575Z,97.10
2018-11-03T04:01:03.867Z,96.50
2018-11-03T04:03:32.067Z,96.40
2018-11-03T04:06:00.330Z,96.10
2018-11-03T04:08:28.559Z,95.90
2018-11-03T04:10:56.790Z,97.10
2018-11-03T04:13:25.035Z,96.50
2018-11-03T04:15:53.240Z,96.50
2018-11-03T04:18:21.475Z,97.70
2018-11-03T04:20:49.761Z,97.20
2018-11-03T04:23:17.947Z,97.20
2018-11-03T04:25:46.208Z,97.10
2018-11-03T04:28:14.540Z,97.70
2018-11-03T04:30:42.781Z,97.40
2018-11-03T04:33:11.024Z,97.10
2018-11-03T04:35:39.255Z,96.80
2018-11-03T04:38:07.492Z,97.40
2018-11-03T04:40:35.721Z,97.20
2018-11-03T04:43:04.050Z,96.80
2018-11-03T04:45:32.308Z,97.40
2018-11-03T04:48:00.535Z,97.40
2018-11-03T04:50:28.873Z,97.40
2018-11-03T04:52:57.081Z,97.60
2018-11-03T04:55:25.347Z,96.80
2018-11-03T04:57:53.546Z,96.70
2018-11-03T05:00:21.782Z,96.20
2018-11-03T05:02:49.999Z,97.50
2018-11-03T05:05:18.258Z,97.80
2018-11-03T05:07:46.487Z,97.40
2018-11-03T05:10:14.762Z,97.90
2018-11-03T05:12:42.992Z,97.90
2018-11-03T05:15:11.227Z,97.30
2018-11-03T05:17:39.476Z,97.60
2018-11-03T05:20:07.743Z,97.20
2018-11-03T05:22:35.978Z,96.90
2018-11-03T05:25:04.232Z,97.80
2018-11-03T05:27:32.502Z,97.20
2018-11-03T05:30:00.735Z,97.00
2018-11-03T05:32:28.962Z,97.30
2018-11-03T05:34:57.224Z,97.50
2018-11-03T05:37:25.448Z,98.10
2018-11-03T05:39:53.707Z,98.50
2018-11-03T05:42:21.956Z,98.30
2018-11-03T05:44:50.179Z,98.10
2018-11-03T05:47:18.430Z,98.00
2018-11-03T05:49:46.695Z,97.80
2018-11-03T05:52:14.922Z,97.20
2018-11-03T05:54:43.164Z,97.80
2018-11-03T05:57:11.416Z,97.80
2018-11-03T05:59:39.652Z,97.10
2018-11-03T06:02:07.889Z,97.10
2018-11-03T06:04:36.307Z,97.70
2018-11-03T06:07:04.585Z,97.30
2018-11-03T06:09:32.823Z,96.70
2018-11-03T06:12:01.142Z,97.10
2018-11-03T06:14:29.412Z,97.60
2018-11-03T06:16:57.622Z,97.90
2018-11-03T06:19:25.863Z,96.90
2018-11-03T06:21:54.120Z,96.80
2018-11-03T06:24:22.333Z,96.60
2018-11-03T06:26:50.627Z,96.70
2018-11-03T06:29:19.246Z,97.20
2018-11-03T06:31:48.322Z,97.80
2018-11-03T06:34:16.959Z,97.80
2018-11-03T06:36:45.905Z,97.40
2018-11-03T06:39:14.920Z,97.50
2018-11-03T06:41:43.155Z,97.70
2018-11-03T06:44:11.390Z,97.50
2018-11-03T06:46:39.668Z,97.70
2018-11-03T06:49:13.282Z,97.60
2018-11-03T06:51:41.671Z,97.90
2018-11-03T06:54:09.886Z,97.90
2018-11-03T06:56:38.136Z,97.90
2018-11-03T06:59:06.391Z,97.90
2018-11-03T07:01:34.680Z,97.60
2018-11-03T07:04:03.434Z,98.20
2018-11-03T07:06:31.671Z,97.40
2018-11-03T07:09:00.023Z,97.60
2018-11-03T07:11:28.560Z,97.00
2018-11-03T07:13:56.804Z,97.10
2018-11-03T07:16:25.027Z,98.20
2018-11-03T07:18:53.819Z,97.90
2018-11-03T07:21:22.044Z,97.70
2018-11-03T07:23:50.297Z,97.60
2018-11-03T07:26:18.581Z,97.10
2018-11-03T07:28:46.833Z,97.40
2018-11-03T07:31:15.060Z,96.70
2018-11-03T07:33:43.462Z,97.60
2018-11-03T07:36:11.725Z,98.00
2018-11-03T07:38:39.960Z,97.80
2018-11-03T07:41:08.271Z,98.20
2018-11-03T07:43:36.497Z,97.20
2018-11-03T07:46:05.177Z,97.50
2018-11-03T07:48:33.516Z,97.40
2018-11-03T07:51:01.749Z,97.20
2018-11-03T07:53:30.035Z,96.70
2018-11-03T07:55:58.298Z,96.90
2018-11-03T07:58:26.535Z,96.80
2018-11-03T08:00:54.779Z,97.10
2018-11-03T08:03:23.123Z,96.60
2018-11-03T08:05:51.355Z,96.50
2018-11-03T08:08:19.595Z,96.40
2018-11-03T08:10:47.856Z,96.40
2018-11-03T08:13:16.092Z,96.20
2018-11-03T08:15:44.438Z,96.10
2018-11-03T08:18:12.603Z,95.90
2018-11-03T08:20:40.844Z,95.70
2018-11-03T08:23:09.088Z,95.40
2018-11-03T08:25:37.397Z,95.20
2018-11-03T08:28:05.720Z,95.50
2018-11-03T08:30:33.952Z,95.30
2018-11-03T08:33:02.311Z,95.00
2018-11-03T08:35:30.647Z,94.90
2018-11-03T08:37:58.882Z,94.50
2018-11-03T08:40:27.135Z,94.50
2018-11-03T08:42:55.359Z,93.60
2018-11-03T08:45:23.602Z,92.80
2018-11-03T08:47:52.320Z,92.30
2018-11-03T08:50:20.576Z,91.60
2018-11-03T08:52:48.840Z,87.20
2018-11-03T08:55:17.343Z,89.00
2018-11-03T08:57:45.592Z,86.60
2018-11-03T09:00:15.073Z,85.30
2018-11-03T09:02:43.492Z,88.30
2018-11-03T09:05:12.343Z,87.30
2018-11-03T09:07:40.922Z,83.80
2018-11-03T09:10:12.166Z,87.60
2018-11-03T09:12:40.394Z,82.80
2018-11-03T09:15:11.022Z,84.80
2018-11-03T09:17:40.339Z,83.90
2018-11-03T09:20:10.472Z,85.20
2018-11-03T09:22:39.469Z,86.30
2018-11-03T09:25:10.718Z,84.80
2018-11-03T09:27:39.675Z,82.60
2018-11-03T09:30:10.595Z,84.90
2018-11-03T09:32:38.899Z,85.40
2018-11-03T09:35:07.768Z,84.90
2018-11-03T09:37:36.157Z,84.00
2018-11-03T09:40:05.111Z,87.20
2018-11-03T09:42:33.333Z,85.90
2018-11-03T09:45:01.599Z,84.40
2018-11-03T09:47:29.913Z,83.10
2018-11-03T09:49:58.207Z,84.80
2018-11-03T09:52:26.523Z,83.60
2018-11-03T09:54:54.754Z,84.50
2018-11-03T09:57:22.998Z,85.40
2018-11-03T09:59:51.301Z,85.50
2018-11-03T10:02:19.553Z,84.40
2018-11-03T10:04:47.791Z,82.40
2018-11-03T10:07:16.035Z,83.90
2018-11-03T10:09:44.286Z,84.50
2018-11-03T10:12:12.601Z,84.20
2018-11-03T10:14:41.098Z,84.40
2018-11-03T10:17:09.323Z,83.40
2018-11-03T10:19:37.622Z,82.80
2018-11-03T10:22:05.952Z,83.50
2018-11-03T10:24:34.115Z,82.30
2018-11-03T10:27:02.405Z,83.90
2018-11-03T10:29:30.643Z,82.80
2018-11-03T10:31:58.863Z,83.30
2018-11-03T10:34:27.083Z,80.20
2018-11-03T10:36:55.329Z,84.20
2018-11-03T10:39:35.205Z,82.30
2018-11-03T10:42:04.049Z,83.30
2018-11-03T10:44:32.316Z,83.60
2018-11-03T10:47:00.535Z,82.10
2018-11-03T10:49:28.847Z,81.40
2018-11-03T10:51:57.050Z,83.10
2018-11-03T10:54:25.295Z,83.60
2018-11-03T10:56:54.139Z,82.90
2018-11-03T10:59:22.401Z,82.30
2018-11-03T11:01:56.054Z,82.20
2018-11-03T11:05:30.225Z,83.00
2018-11-03T11:08:03.904Z,82.80
2018-11-03T11:10:37.642Z,82.20
2018-11-03T11:13:10.578Z,82.70
2018-11-03T11:15:38.856Z,83.20
2018-11-03T11:18:07.059Z,83.90
2018-11-03T11:20:35.332Z,83.40
2018-11-03T11:23:03.554Z,83.50
2018-11-03T11:25:31.847Z,84.30
2018-11-03T11:28:00.046Z,84.00
2018-11-03T11:30:33.674Z,83.20
2018-11-03T11:33:02.025Z,82.90
2018-11-03T11:35:30.252Z,83.60
2018-11-03T11:37:58.477Z,83.60
2018-11-03T11:40:26.995Z,83.80
2018-11-03T11:42:55.228Z,83.80
2018-11-03T11:45:23.455Z,84.30
2018-11-03T11:47:51.772Z,84.60
2018-11-03T11:50:20.435Z,84.40
2018-11-03T11:52:48.662Z,84.50
2018-11-03T11:55:16.956Z,83.90
2018-11-03T11:57:45.174Z,84.10
2018-11-03T12:00:13.414Z,84.10
2018-11-03T12:02:41.747Z,84.60
2018-11-03T12:05:10.016Z,83.90
2018-11-03T12:07:38.255Z,85.20
2018-11-03T12:10:06.574Z,84.50
2018-11-03T12:12:34.740Z,83.80
2018-11-03T12:15:02.959Z,83.50
2018-11-03T12:17:31.192Z,84.70
2018-11-03T12:19:59.411Z,84.70
2018-11-03T12:22:27.631Z,84.20
2018-11-03T12:24:56.243Z,84.10
2018-11-03T12:27:24.486Z,84.80
2018-11-03T12:29:52.739Z,84.80
2018-11-03T12:32:21.014Z,85.20
2018-11-03T12:34:49.241Z,85.20
2018-11-03T12:37:17.482Z,84.50
2018-11-03T12:39:45.803Z,84.60
2018-11-03T12:42:14.052Z,84.50
2018-11-03T12:44:42.289Z,83.80
2018-11-03T12:47:10.696Z,84.20
2018-11-03T12:49:38.928Z,83.90
2018-11-03T12:52:07.172Z,84.30
2018-11-03T12:54:35.420Z,84.40
2018-11-03T12:57:03.634Z,84.20
2018-11-03T12:59:31.848Z,84.80
2018-11-03T13:02:00.377Z,84.70
2018-11-03T13:04:28.763Z,84.60
2018-11-03T13:06:57.083Z,85.00
2018-11-03T13:09:25.374Z,85.40
2018-11-03T13:11:53.596Z,85.20
2018-11-03T13:14:21.831Z,85.40
2018-11-03T13:16:50.179Z,85.80
2018-11-03T13:19:18.406Z,85.60
2018-11-03T13:21:46.751Z,86.20
2018-11-03T13:24:14.992Z,86.10
2018-11-03T13:26:43.227Z,85.70
2018-11-03T13:29:11.442Z,85.90
2018-11-03T13:31:39.676Z,86.10
2018-11-03T13:34:07.895Z,86.50
2018-11-03T13:36:36.181Z,86.40
2018-11-03T13:39:06.448Z,86.00
2018-11-03T13:41:34.689Z,86.80
2018-11-03T13:44:02.922Z,86.20
2018-11-03T13:46:31.259Z,86.50
2018-11-03T13:48:59.495Z,86.60
2018-11-03T13:51:27.737Z,86.90
2018-11-03T13:53:56.030Z,86.90
2018-11-03T13:56:24.259Z,86.70
2018-11-03T13:58:53.587Z,87.10
2018-11-03T14:01:21.883Z,87.20
2018-11-03T14:03:50.109Z,87.10
2018-11-03T14:06:18.348Z,87.00
2018-11-03T14:08:46.575Z,87.20
2018-11-03T14:11:14.899Z,86.90
2018-11-03T14:13:43.082Z,87.10
2018-11-03T14:16:11.317Z,87.30
2018-11-03T14:18:39.587Z,87.20
2018-11-03T14:21:07.820Z,87.60
2018-11-03T14:23:36.214Z,87.60
2018-11-03T14:26:04.436Z,88.00
2018-11-03T14:28:32.665Z,88.00
2018-11-03T14:31:00.931Z,87.70
2018-11-03T14:33:29.285Z,88.00
2018-11-03T14:35:57.440Z,88.20
2018-11-03T14:38:25.754Z,88.60
2018-11-03T14:40:53.988Z,88.40
2018-11-03T14:43:22.266Z,88.40
2018-11-03T14:45:50.825Z,88.70
2018-11-03T14:48:19.108Z,88.70
2018-11-03T14:50:49.039Z,89.10
2018-11-03T14:53:17.392Z,88.80
2018-11-03T14:55:45.604Z,89.30
2018-11-03T14:58:13.850Z,89.20
2018-11-03T15:00:42.189Z,89.10
2018-11-03T15:03:10.423Z,88.90
2018-11-03T15:05:38.631Z,89.10
2018-11-03T15:08:06.874Z,89.50
2018-11-03T15:10:35.101Z,89.20
2018-11-03T15:13:03.322Z,89.00
2018-11-03T15:15:31.559Z,89.40
2018-11-03T15:17:59.767Z,89.50
2018-11-03T15:20:27.979Z,89.20
2018-11-03T15:22:56.288Z,89.40
2018-11-03T15:25:24.503Z,89.50
2018-11-03T15:27:52.722Z,89.00
2018-11-03T15:30:20.969Z,89.40
2018-11-03T15:32:50.158Z,89.20
2018-11-03T15:35:18.384Z,89.30
2018-11-03T15:37:48.830Z,89.50
2018-11-03T15:40:17.075Z,89.40
2018-11-03T15:42:45.411Z,89.60
2018-11-03T15:45:16.870Z,89.90
2018-11-03T15:47:45.435Z,89.60
2018-11-03T15:50:14.527Z,90.00
2018-11-03T15:52:43.334Z,89.40
2018-11-03T15:55:11.577Z,89.80
2018-11-03T15:57:39.835Z,90.00
2018-11-03T16:00:14.968Z,89.70
2018-11-03T16:02:43.239Z,89.60
2018-11-03T16:05:11.483Z,90.10
2018-11-03T16:07:39.759Z,90.00
2018-11-03T16:10:08.828Z,89.80
2018-11-03T16:12:37.152Z,90.00
2018-11-03T16:15:06.103Z,90.00
2018-11-03T16:17:34.338Z,90.00
2018-11-03T16:20:02.607Z,90.20
2018-11-03T16:22:30.895Z,90.20
2018-11-03T16:24:59.131Z,90.10
2018-11-03T16:27:27.344Z,90.20
2018-11-03T16:29:55.626Z,90.20
2018-11-03T16:32:23.916Z,90.00
2018-11-03T16:34:52.111Z,90.10
2018-11-03T16:37:20.503Z,90.10
2018-11-03T16:39:48.742Z,90.40
2018-11-03T16:42:16.982Z,90.30
2018-11-03T16:44:45.223Z,90.30
2018-11-03T16:47:13.614Z,90.40
2018-11-03T16:49:41.840Z,90.50
2018-11-03T16:52:10.130Z,90.40
2018-11-03T16:54:38.367Z,90.40
2018-11-03T16:57:06.614Z,90.30
2018-11-03T16:59:34.888Z,90.50
2018-11-03T17:02:03.152Z,90.50
2018-11-03T17:04:31.403Z,90.30
2018-11-03T17:06:59.715Z,90.50
2018-11-03T17:09:27.888Z,90.60
2018-11-03T17:11:56.164Z,90.60
2018-11-03T17:14:24.406Z,91.00
2018-11-03T17:16:52.655Z,90.50
2018-11-03T17:19:20.900Z,90.50
2018-11-03T17:21:49.171Z,90.40
2018-11-03T17:24:17.415Z,90.30
2018-11-03T17:26:45.639Z,90.20
2018-11-03T17:29:13.896Z,90.30
2018-11-03T17:31:42.121Z,90.50
2018-11-03T17:34:10.406Z,90.60
2018-11-03T17:36:38.722Z,90.90
2018-11-03T17:39:08.791Z,90.80
2018-11-03T17:41:37.031Z,90.70
2018-11-03T17:44:05.939Z,90.80
2018-11-03T17:46:34.843Z,90.60
2018-11-03T17:49:03.067Z,90.70
2018-11-03T17:51:31.352Z,90.60
2018-11-03T17:53:59.685Z,90.90
2018-11-03T17:56:27.952Z,90.80
2018-11-03T17:58:56.199Z,90.80
2018-11-03T18:01:24.632Z,90.70
2018-11-03T18:03:52.767Z,90.80
2018-11-03T18:06:20.992Z,90.80
2018-11-03T18:08:49.267Z,90.80
2018-11-03T18:11:17.540Z,91.00
2018-11-03T18:13:45.841Z,90.90
2018-11-03T18:16:14.111Z,90.90
2018-11-03T18:18:42.378Z,90.80
2018-11-03T18:21:10.773Z,90.90
2018-11-03T18:23:39.602Z,90.90
2018-11-03T18:26:07.903Z,90.80
2018-11-03T18:28:36.115Z,90.90
2018-11-03T18:31:04.797Z,90.90
2018-11-03T18:33:33.136Z,90.90
2018-11-03T18:36:01.263Z,91.20
2018-11-03T18:38:29.527Z,90.90
2018-11-03T18:40:57.770Z,91.00
2018-11-03T18:43:26.058Z,91.10
2018-11-03T18:45:54.338Z,91.00
2018-11-03T18:48:22.858Z,90.90
2018-11-03T18:50:51.180Z,91.20
2018-11-03T18:53:19.398Z,91.30
2018-11-03T18:55:47.625Z,91.50
2018-11-03T18:58:15.975Z,91.40
2018-11-03T19:00:44.244Z,91.80
2018-11-03T19:03:12.460Z,91.80
2018-11-03T19:05:41.042Z,91.80
2018-11-03T19:08:09.307Z,91.80
2018-11-03T19:10:37.547Z,91.80
2018-11-03T19:13:05.844Z,92.00
2018-11-03T19:15:34.075Z,92.10
2018-11-03T19:18:02.344Z,92.50
2018-11-03T19:20:30.615Z,92.30
2018-11-03T19:22:58.878Z,91.90
2018-11-03T19:25:27.108Z,91.90
2018-11-03T19:27:55.389Z,91.80
2018-11-03T19:30:23.727Z,92.00
2018-11-03T19:32:51.891Z,91.90
2018-11-03T19:35:20.155Z,91.70
2018-11-03T19:37:48.395Z,91.80
2018-11-03T19:40:16.643Z,91.80
2018-11-03T19:42:44.958Z,91.70
2018-11-03T19:45:13.280Z,91.80
2018-11-03T19:47:41.459Z,92.00
2018-11-03T19:50:10.177Z,92.10
2018-11-03T19:52:38.411Z,91.90
2018-11-03T19:55:09.617Z,92.10
2018-11-03T19:57:37.903Z,92.20
2018-11-03T20:00:08.911Z,92.30
2018-11-03T20:02:37.243Z,92.30
2018-11-03T20:05:06.023Z,92.30
2018-11-03T20:07:34.302Z,92.20
2018-11-03T20:10:02.593Z,92.20
2018-11-03T20:12:30.803Z,92.30
2018-11-03T20:14:59.058Z,92.20
2018-11-03T20:17:27.270Z,92.20
2018-11-03T20:19:55.548Z,92.50
2018-11-03T20:22:23.775Z,92.30
2018-11-03T20:24:52.019Z,92.40
2018-11-03T20:27:20.594Z,92.50
2018-11-03T20:29:48.851Z,92.40
2018-11-03T20:32:17.090Z,92.40
2018-11-03T20:34:45.332Z,92.30
2018-11-03T20:37:13.576Z,92.30
2018-11-03T20:39:41.803Z,92.30
2018-11-03T20:42:10.127Z,92.40
2018-11-03T20:44:38.371Z,92.50
2018-11-03T20:47:06.594Z,92.60
2018-11-03T20:49:34.858Z,92.80
2018-11-03T20:52:03.091Z,92.90
2018-11-03T20:54:31.331Z,92.80
2018-11-03T20:56:59.573Z,92.60
2018-11-03T20:59:27.800Z,93.20
2018-11-03T21:01:56.630Z,92.90
2018-11-03T21:04:24.890Z,93.10
2018-11-03T21:06:53.188Z,92.90
2018-11-03T21:09:21.431Z,93.00
2018-11-03T21:11:49.715Z,93.30
2018-11-03T21:14:17.969Z,93.30
2018-11-03T21:16:46.227Z,93.10
2018-11-03T21:19:14.470Z,93.40
2018-11-03T21:21:42.706Z,93.20
2018-11-03T21:24:11.314Z,93.00
2018-11-03T21:26:39.409Z,93.40
2018-11-03T21:29:08.170Z,93.50
2018-11-03T21:31:36.495Z,93.70
2018-11-03T21:34:05.116Z,93.50
2018-11-03T21:36:33.345Z,93.70
2018-11-03T21:39:01.606Z,93.90
2018-11-03T21:41:29.906Z,94.10
2018-11-03T21:43:58.131Z,94.40
2018-11-03T21:46:26.425Z,94.50
2018-11-03T21:48:54.622Z,94.50
2018-11-03T21:51:22.875Z,94.50
2018-11-03T21:53:51.127Z,94.70
2018-11-03T21:56:19.378Z,94.90
2018-11-03T21:58:47.663Z,95.00
2018-11-03T22:01:15.910Z,94.70
2018-11-03T22:03:44.162Z,94.70
2018-11-03T22:06:12.412Z,95.30
2018-11-03T22:08:40.627Z,95.20
2018-11-03T22:11:08.897Z,95.30
2018-11-03T22:13:37.139Z,95.40
2018-11-03T22:16:05.408Z,95.50
2018-11-03T22:18:33.691Z,95.30
2018-11-03T22:21:01.979Z,95.80
2018-11-03T22:23:30.266Z,95.40
2018-11-03T22:25:58.612Z,95.40
2018-11-03T22:28:26.841Z,95.10
2018-11-03T22:30:55.068Z,95.30
2018-11-03T22:33:23.368Z,96.10
2018-11-03T22:35:51.616Z,95.30
2018-11-03T22:38:19.845Z,95.60
2018-11-03T22:40:48.179Z,95.80
2018-11-03T22:43:16.415Z,95.80
2018-11-03T22:45:44.651Z,95.90
2018-11-03T22:48:12.977Z,95.90
2018-11-03T22:50:41.208Z,95.90
2018-11-03T22:53:09.423Z,95.80
2018-11-03T22:55:37.659Z,95.60
2018-11-03T22:58:06.212Z,95.70
2018-11-03T23:00:38.699Z,95.10
2018-11-03T23:03:06.923Z,95.50
2018-11-03T23:05:35.151Z,95.60
2018-11-03T23:08:03.399Z,96.20
2018-11-03T23:10:31.681Z,95.90
2018-11-03T23:13:00.041Z,95.90
2018-11-03T23:15:28.223Z,95.50
2018-11-03T23:17:56.455Z,95.80
2018-11-03T23:20:24.691Z,95.80
2018-11-03T23:22:52.961Z,95.90
2018-11-03T23:25:21.183Z,96.50
2018-11-03T23:27:49.437Z,95.90
2018-11-03T23:30:17.860Z,95.60
2018-11-03T23:32:46.080Z,96.00
2018-11-03T23:35:14.607Z,96.00
2018-11-03T23:37:43.232Z,96.60
2018-11-03T23:40:11.867Z,96.50
2018-11-03T23:42:40.124Z,96.30
2018-11-03T23:45:09.677Z,96.10
2018-11-03T23:47:38.068Z,96.30
2018-11-03T23:50:08.242Z,95.90
2018-11-03T23:52:36.755Z,96.60
2018-11-03T23:55:06.022Z,96.20
2018-11-03T23:57:34.283Z,96.00
